Terminal Aerodrome Forecast
Issued by NWS

Home | Current Version | Previous Version | Text Only | Print | Product List | Glossary On
Versions: 1 2 3 4 5 6 7 8 9 10 11 12 13
000
FTUS44 KEPZ 270540
TAFDMN
TAF
KDMN 270540Z 2706/2806 12010KT P6SM VCSH BKN100 BKN200
     FM270800 17007KT P6SM SCT100 SCT250
     FM272200 09009KT P6SM VCTS BKN090CB BKN250=

USA.gov is the U.S. government's official web portal to all federal, state and local government web resources and services.